createdAt,value
2023-04-24T00:01:57.613Z,100.00
2023-04-24T00:04:27.776Z,100.00
2023-04-24T00:06:58.600Z,100.00
2023-04-24T00:09:31.210Z,100.00
2023-04-24T00:12:01.414Z,100.00
2023-04-24T00:14:31.323Z,100.00
2023-04-24T00:17:01.372Z,100.00
2023-04-24T00:19:31.401Z,100.00
2023-04-24T00:22:01.559Z,100.00
2023-04-24T00:24:34.065Z,100.00
2023-04-24T00:27:03.974Z,100.00
2023-04-24T00:29:33.908Z,100.00
2023-04-24T00:32:03.894Z,100.00
2023-04-24T00:34:34.222Z,100.00
2023-04-24T00:37:04.718Z,100.00
2023-04-24T00:39:40.913Z,100.00
2023-04-24T00:42:11.286Z,100.00
2023-04-24T00:44:41.399Z,100.00
2023-04-24T00:47:11.764Z,100.00
2023-04-24T00:49:41.823Z,100.00
2023-04-24T00:52:11.952Z,100.00
2023-04-24T00:54:44.627Z,100.00
2023-04-24T00:57:14.796Z,100.00
2023-04-24T00:59:45.253Z,100.00
2023-04-24T01:02:16.806Z,100.00
2023-04-24T01:04:46.981Z,100.00
2023-04-24T01:07:16.941Z,100.00
2023-04-24T01:09:53.280Z,100.00
2023-04-24T01:12:23.624Z,100.00
2023-04-24T01:14:53.734Z,100.00
2023-04-24T01:17:23.652Z,100.00
2023-04-24T01:19:54.807Z,100.00
2023-04-24T01:22:27.792Z,100.00
2023-04-24T01:24:57.803Z,100.00
2023-04-24T01:27:27.905Z,100.00
2023-04-24T01:29:58.242Z,100.00
2023-04-24T01:32:28.826Z,100.00
2023-04-24T01:34:59.418Z,100.00
2023-04-24T01:37:33.371Z,100.00
2023-04-24T01:40:04.648Z,100.00
2023-04-24T01:42:34.889Z,100.00
2023-04-24T01:45:07.138Z,100.00
2023-04-24T01:47:37.273Z,100.00
2023-04-24T01:50:08.375Z,100.00
2023-04-24T01:52:40.983Z,100.00
2023-04-24T01:55:13.839Z,100.00
2023-04-24T01:57:44.767Z,100.00
2023-04-24T02:00:15.586Z,100.00
2023-04-24T02:02:47.938Z,100.00
2023-04-24T02:05:18.327Z,100.00
2023-04-24T02:07:50.889Z,100.00
2023-04-24T02:10:20.867Z,100.00
2023-04-24T02:12:50.770Z,100.00
2023-04-24T02:15:20.650Z,100.00
2023-04-24T02:17:50.680Z,100.00
2023-04-24T02:20:20.660Z,100.00
2023-04-24T02:22:53.247Z,100.00
2023-04-24T02:25:23.426Z,100.00
2023-04-24T02:27:53.285Z,100.00
2023-04-24T02:30:23.448Z,100.00
2023-04-24T02:32:53.302Z,100.00
2023-04-24T02:35:23.278Z,100.00
2023-04-24T02:37:55.962Z,100.00
2023-04-24T02:40:25.884Z,100.00
2023-04-24T02:42:55.851Z,100.00
2023-04-24T02:45:27.880Z,100.00
2023-04-24T02:47:57.800Z,100.00
2023-04-24T02:50:27.815Z,100.00
2023-04-24T02:53:00.496Z,100.00
2023-04-24T02:55:30.640Z,100.00
2023-04-24T02:58:01.156Z,100.00
2023-04-24T03:00:31.073Z,100.00
2023-04-24T03:03:01.210Z,100.00
2023-04-24T03:05:31.949Z,100.00
2023-04-24T03:08:04.972Z,100.00
2023-04-24T03:10:35.055Z,100.00
2023-04-24T03:13:04.868Z,100.00
2023-04-24T03:15:34.733Z,100.00
2023-04-24T03:18:04.750Z,100.00
2023-04-24T03:20:35.005Z,100.00
2023-04-24T03:23:08.644Z,100.00
2023-04-24T03:25:40.040Z,100.00
2023-04-24T03:28:10.216Z,100.00
2023-04-24T03:30:50.629Z,100.00
2023-04-24T03:33:21.529Z,100.00
2023-04-24T03:36:04.088Z,100.00
2023-04-24T03:38:44.780Z,100.00
2023-04-24T03:41:27.921Z,100.00
2023-04-24T03:44:03.939Z,100.00
2023-04-24T03:46:34.609Z,100.00
2023-04-24T03:49:05.672Z,100.00
2023-04-24T03:51:39.200Z,100.00
2023-04-24T03:54:20.123Z,100.00
2023-04-24T03:56:50.125Z,100.00
2023-04-24T03:59:20.460Z,100.00
2023-04-24T04:01:58.622Z,100.00
2023-04-24T04:04:28.889Z,100.00
2023-04-24T04:07:02.253Z,100.00
2023-04-24T04:09:35.092Z,100.00
2023-04-24T04:12:05.079Z,100.00
2023-04-24T04:14:36.741Z,100.00
2023-04-24T04:17:06.674Z,100.00
2023-04-24T04:19:36.608Z,100.00
2023-04-24T04:22:06.901Z,100.00
2023-04-24T04:24:47.443Z,100.00
2023-04-24T04:27:17.775Z,100.00
2023-04-24T04:30:09.725Z,100.00
2023-04-24T04:32:48.968Z,100.00
2023-04-24T04:35:19.010Z,100.00
2023-04-24T04:37:48.994Z,100.00
2023-04-24T04:40:31.291Z,100.00
2023-04-24T04:43:05.779Z,100.00
2023-04-24T04:45:44.021Z,100.00
2023-04-24T04:48:34.986Z,100.00
2023-04-24T04:51:06.670Z,100.00
2023-04-24T04:53:36.729Z,100.00
2023-04-24T04:56:09.523Z,100.00
2023-04-24T04:58:48.970Z,100.00
2023-04-24T05:01:20.508Z,100.00
2023-04-24T05:03:51.836Z,100.00
2023-04-24T05:06:24.231Z,100.00
2023-04-24T05:08:58.480Z,100.00
2023-04-24T05:11:51.355Z,100.00
2023-04-24T05:14:21.748Z,100.00
2023-04-24T05:16:52.797Z,100.00
2023-04-24T05:19:24.812Z,100.00
2023-04-24T05:21:54.749Z,100.00
2023-04-24T05:24:24.682Z,100.00
2023-04-24T05:27:18.495Z,100.00
2023-04-24T05:29:48.396Z,100.00
2023-04-24T05:32:18.268Z,100.00
2023-04-24T05:34:48.580Z,100.00
2023-04-24T05:37:18.611Z,100.00
2023-04-24T05:39:48.493Z,100.00
2023-04-24T05:42:21.007Z,100.00
2023-04-24T05:44:53.297Z,100.00
2023-04-24T05:47:24.569Z,100.00
2023-04-24T05:49:56.035Z,100.00
2023-04-24T05:52:26.935Z,100.00
2023-04-24T05:54:56.991Z,100.00
2023-04-24T05:57:33.028Z,100.00
2023-04-24T06:00:07.858Z,100.00
2023-04-24T06:02:43.911Z,100.00
2023-04-24T06:05:16.315Z,100.00
2023-04-24T06:07:46.287Z,100.00
2023-04-24T06:10:16.668Z,100.00
2023-04-24T06:12:51.195Z,100.00
2023-04-24T06:15:22.015Z,100.00
2023-04-24T06:18:04.574Z,100.00
2023-04-24T06:20:34.599Z,100.00
2023-04-24T06:23:05.817Z,100.00
2023-04-24T06:25:37.142Z,100.00
2023-04-24T06:28:10.155Z,100.00
2023-04-24T06:30:40.079Z,100.00
2023-04-24T06:33:20.096Z,100.00
2023-04-24T06:35:51.790Z,100.00
2023-04-24T06:38:21.954Z,100.00
2023-04-24T06:40:52.032Z,100.00
2023-04-24T06:43:24.543Z,100.00
2023-04-24T06:45:54.577Z,96.63
2023-04-24T06:48:24.912Z,72.59
2023-04-24T06:50:55.197Z,72.70
2023-04-24T06:53:26.689Z,69.11
2023-04-24T06:55:57.034Z,67.80
2023-04-24T06:58:30.551Z,69.44
2023-04-24T07:01:00.876Z,74.53
2023-04-24T07:03:31.943Z,78.23
2023-04-24T07:06:02.367Z,74.68
2023-04-24T07:08:34.385Z,67.72
2023-04-24T07:11:04.831Z,60.70
2023-04-24T07:13:37.605Z,64.22
2023-04-24T07:16:08.107Z,73.74
2023-04-24T07:18:39.698Z,75.66
2023-04-24T07:21:10.769Z,82.61
2023-04-24T07:23:42.469Z,81.46
2023-04-24T07:26:12.743Z,76.18
2023-04-24T07:28:45.671Z,93.92
2023-04-24T07:31:15.788Z,100.00
2023-04-24T07:33:45.703Z,100.00
2023-04-24T07:36:20.044Z,100.00
2023-04-24T07:38:50.120Z,100.00
2023-04-24T07:41:20.036Z,100.00
2023-04-24T07:43:52.482Z,100.00
2023-04-24T07:46:22.395Z,100.00
2023-04-24T07:49:05.380Z,100.00
2023-04-24T07:51:42.794Z,100.00
2023-04-24T07:54:13.006Z,100.00
2023-04-24T07:56:44.125Z,100.00
2023-04-24T07:59:16.619Z,96.74
2023-04-24T08:01:46.695Z,79.46
2023-04-24T08:04:16.775Z,69.65
2023-04-24T08:06:46.776Z,68.39
2023-04-24T08:09:16.627Z,63.48
2023-04-24T08:11:47.496Z,62.69
2023-04-24T08:14:20.128Z,57.89
2023-04-24T08:16:50.514Z,60.44
2023-04-24T08:19:20.441Z,54.48
2023-04-24T08:21:50.331Z,54.41
2023-04-24T08:24:20.344Z,53.34
2023-04-24T08:26:51.398Z,53.76
2023-04-24T08:29:24.699Z,57.24
2023-04-24T08:31:55.708Z,67.11
2023-04-24T08:34:25.743Z,68.56
2023-04-24T08:36:55.664Z,63.20
2023-04-24T08:39:25.559Z,74.20
2023-04-24T08:41:56.874Z,68.56
2023-04-24T08:44:29.360Z,71.28
2023-04-24T08:46:59.372Z,73.52
2023-04-24T08:49:30.842Z,68.78
2023-04-24T08:52:01.227Z,63.08
2023-04-24T08:54:31.984Z,61.90
2023-04-24T08:57:04.833Z,57.64
2023-04-24T08:59:38.673Z,56.56
2023-04-24T09:02:08.842Z,53.85
2023-04-24T09:04:39.597Z,56.39
2023-04-24T09:07:11.515Z,58.52
2023-04-24T09:09:43.115Z,64.94
2023-04-24T09:12:13.580Z,62.41
2023-04-24T09:14:46.485Z,61.52
2023-04-24T09:17:16.713Z,57.76
2023-04-24T09:19:46.622Z,58.24
2023-04-24T09:22:16.643Z,54.35
2023-04-24T09:24:46.564Z,55.23
2023-04-24T09:27:18.379Z,59.01
2023-04-24T09:30:00.171Z,54.38
2023-04-24T09:32:31.302Z,58.76
2023-04-24T09:35:16.022Z,57.53
2023-04-24T09:37:47.788Z,58.06
2023-04-24T09:40:19.995Z,60.58
2023-04-24T09:42:50.758Z,57.10
2023-04-24T09:45:24.251Z,58.40
2023-04-24T09:47:56.871Z,58.16
2023-04-24T09:50:26.957Z,58.39
2023-04-24T09:53:02.035Z,56.07
2023-04-24T09:55:33.613Z,50.49
2023-04-24T09:58:06.336Z,46.57
2023-04-24T10:00:38.909Z,44.17
2023-04-24T10:03:09.827Z,42.06
2023-04-24T10:05:42.334Z,40.96
2023-04-24T10:08:16.946Z,40.81
2023-04-24T10:10:48.166Z,43.58
2023-04-24T10:13:18.855Z,45.58
2023-04-24T10:15:52.950Z,47.97
2023-04-24T10:18:25.440Z,47.80
2023-04-24T10:20:57.329Z,49.74
2023-04-24T10:23:29.218Z,49.11
2023-04-24T10:25:59.861Z,46.40
2023-04-24T10:28:31.792Z,45.61
2023-04-24T10:31:05.061Z,44.72
2023-04-24T10:33:35.732Z,43.17
2023-04-24T10:36:06.296Z,42.42
2023-04-24T10:38:36.350Z,39.97
2023-04-24T10:41:17.426Z,41.22
2023-04-24T10:43:47.573Z,41.21
2023-04-24T10:46:24.598Z,39.70
2023-04-24T10:48:57.387Z,39.89
2023-04-24T10:51:28.620Z,41.39
2023-04-24T10:54:01.612Z,42.91
2023-04-24T10:56:31.568Z,43.22
2023-04-24T10:59:02.327Z,44.79
2023-04-24T11:01:36.244Z,46.44
2023-04-24T11:04:07.308Z,47.69
2023-04-24T11:06:38.593Z,48.62
2023-04-24T11:09:10.133Z,49.30
2023-04-24T11:11:41.591Z,50.84
2023-04-24T11:14:12.008Z,50.95
2023-04-24T11:16:57.353Z,52.03
2023-04-24T11:19:29.780Z,51.48
2023-04-24T11:22:04.355Z,52.18
2023-04-24T11:24:36.851Z,53.51
2023-04-24T11:27:15.225Z,54.76
2023-04-24T11:29:47.093Z,55.80
2023-04-24T11:32:29.367Z,56.36
2023-04-24T11:35:01.751Z,57.83
2023-04-24T11:37:32.810Z,56.17
2023-04-24T11:40:03.747Z,55.65
2023-04-24T11:42:37.876Z,55.34
2023-04-24T11:45:12.996Z,52.88
2023-04-24T11:47:46.809Z,50.61
2023-04-24T11:50:19.932Z,50.67
2023-04-24T11:52:51.729Z,49.38
2023-04-24T11:55:30.781Z,50.62
2023-04-24T11:58:02.814Z,52.94
2023-04-24T12:00:35.468Z,54.38
2023-04-24T12:03:13.050Z,55.21
2023-04-24T12:05:45.108Z,60.69
2023-04-24T12:08:15.261Z,56.31
2023-04-24T12:10:45.096Z,55.03
2023-04-24T12:13:15.091Z,54.48
2023-04-24T12:15:45.077Z,52.37
2023-04-24T12:18:19.618Z,50.58
2023-04-24T12:20:49.478Z,50.50
2023-04-24T12:23:20.487Z,49.26
2023-04-24T12:25:50.337Z,48.68
2023-04-24T12:28:20.324Z,49.86
2023-04-24T12:30:52.497Z,50.83
2023-04-24T12:33:25.887Z,58.97
2023-04-24T12:35:57.097Z,80.49
2023-04-24T12:38:30.689Z,76.71
2023-04-24T12:41:10.843Z,73.67
2023-04-24T12:43:40.964Z,67.32
2023-04-24T12:46:11.018Z,59.02
2023-04-24T12:48:43.730Z,59.16
2023-04-24T12:51:13.764Z,55.72
2023-04-24T12:53:43.946Z,53.59
2023-04-24T12:56:14.014Z,52.49
2023-04-24T12:58:43.956Z,52.18
2023-04-24T13:01:13.980Z,52.98
2023-04-24T13:03:46.857Z,53.54
2023-04-24T13:06:17.148Z,55.41
2023-04-24T13:08:48.405Z,57.57
2023-04-24T13:11:18.282Z,57.47
2023-04-24T13:13:48.145Z,59.27
2023-04-24T13:16:18.028Z,59.11
2023-04-24T13:18:50.752Z,60.36
2023-04-24T13:21:20.735Z,63.47
2023-04-24T13:23:50.680Z,71.46
2023-04-24T13:26:21.063Z,76.13
2023-04-24T13:28:50.994Z,87.89
2023-04-24T13:31:20.992Z,98.05
2023-04-24T13:33:53.564Z,100.00
2023-04-24T13:36:23.739Z,100.00
2023-04-24T13:38:53.686Z,100.00
2023-04-24T13:41:23.701Z,86.54
2023-04-24T13:43:53.720Z,73.02
2023-04-24T13:46:23.775Z,66.29
2023-04-24T13:48:56.440Z,58.22
2023-04-24T13:51:28.150Z,61.39
2023-04-24T13:53:58.049Z,62.18
2023-04-24T13:56:27.907Z,64.21
2023-04-24T13:58:57.908Z,62.68
2023-04-24T14:01:28.047Z,64.27
2023-04-24T14:04:01.051Z,72.52
2023-04-24T14:06:31.157Z,85.24
2023-04-24T14:09:02.435Z,97.26
2023-04-24T14:11:32.824Z,100.00
2023-04-24T14:14:04.008Z,100.00
2023-04-24T14:16:34.403Z,100.00
2023-04-24T14:19:07.473Z,98.14
2023-04-24T14:21:37.671Z,83.33
2023-04-24T14:24:07.723Z,66.32
2023-04-24T14:26:38.643Z,64.76
2023-04-24T14:29:14.910Z,61.80
2023-04-24T14:31:46.082Z,68.04
2023-04-24T14:34:19.059Z,87.00
2023-04-24T14:36:49.229Z,90.08
2023-04-24T14:39:19.182Z,75.47
2023-04-24T14:41:49.017Z,78.39
2023-04-24T14:44:19.093Z,100.00
2023-04-24T14:46:49.171Z,100.00
2023-04-24T14:49:21.643Z,100.00
2023-04-24T14:51:51.519Z,100.00
2023-04-24T14:54:24.416Z,100.00
2023-04-24T14:56:54.643Z,100.00
2023-04-24T14:59:24.485Z,100.00
2023-04-24T15:02:14.506Z,86.79
2023-04-24T15:04:48.078Z,63.22
2023-04-24T15:07:18.076Z,78.81
2023-04-24T15:09:48.540Z,83.01
2023-04-24T15:12:18.451Z,67.07
2023-04-24T15:14:48.412Z,56.23
2023-04-24T15:17:18.266Z,50.46
2023-04-24T15:19:50.768Z,51.60
2023-04-24T15:22:20.636Z,58.05
2023-04-24T15:24:50.557Z,58.84
2023-04-24T15:27:21.011Z,65.48
2023-04-24T15:29:51.401Z,69.58
2023-04-24T15:32:21.707Z,75.70
2023-04-24T15:35:07.179Z,78.48
2023-04-24T15:37:40.056Z,79.76
2023-04-24T15:40:12.360Z,81.01
2023-04-24T15:42:42.875Z,74.26
2023-04-24T15:45:13.830Z,74.80
2023-04-24T15:47:44.381Z,74.05
2023-04-24T15:50:17.579Z,76.38
2023-04-24T15:52:47.968Z,73.45
2023-04-24T15:55:18.192Z,96.80
2023-04-24T15:57:48.791Z,100.00
2023-04-24T16:00:19.941Z,100.00
2023-04-24T16:02:52.203Z,100.00
2023-04-24T16:05:25.034Z,100.00
2023-04-24T16:07:56.074Z,84.42
2023-04-24T16:10:26.326Z,95.90
2023-04-24T16:12:56.650Z,97.92
2023-04-24T16:15:26.974Z,72.49
2023-04-24T16:17:57.225Z,51.46
2023-04-24T16:20:30.094Z,46.10
2023-04-24T16:23:00.729Z,40.49
2023-04-24T16:25:31.286Z,40.71
2023-04-24T16:28:02.029Z,40.53
2023-04-24T16:30:32.444Z,40.00
2023-04-24T16:33:05.822Z,42.73
2023-04-24T16:35:38.769Z,48.19
2023-04-24T16:38:09.424Z,53.49
2023-04-24T16:40:39.656Z,60.62
2023-04-24T16:43:10.093Z,64.93
2023-04-24T16:45:40.416Z,71.40
2023-04-24T16:48:11.636Z,77.43
2023-04-24T16:50:44.400Z,77.79
2023-04-24T16:53:14.655Z,80.43
2023-04-24T16:55:44.983Z,78.15
2023-04-24T16:58:15.314Z,76.67
2023-04-24T17:00:46.781Z,75.52
2023-04-24T17:03:17.205Z,73.92
2023-04-24T17:05:50.100Z,75.31
2023-04-24T17:08:20.754Z,73.76
2023-04-24T17:10:51.166Z,70.84
2023-04-24T17:13:21.485Z,76.04
2023-04-24T17:15:51.779Z,60.25
2023-04-24T17:18:22.079Z,53.75
2023-04-24T17:20:55.058Z,50.25
2023-04-24T17:23:25.487Z,44.75
2023-04-24T17:25:56.069Z,44.41
2023-04-24T17:28:28.428Z,46.09
2023-04-24T17:30:59.128Z,42.08
2023-04-24T17:33:30.200Z,43.01
2023-04-24T17:36:04.020Z,46.23
2023-04-24T17:38:34.442Z,48.52
2023-04-24T17:41:04.690Z,54.00
2023-04-24T17:43:35.220Z,58.02
2023-04-24T17:46:07.572Z,61.44
2023-04-24T17:48:38.234Z,68.14
2023-04-24T17:51:11.197Z,70.17
2023-04-24T17:53:41.979Z,69.75
2023-04-24T17:56:12.234Z,73.19
2023-04-24T17:58:43.226Z,76.56
2023-04-24T18:01:13.519Z,75.63
2023-04-24T18:03:44.540Z,79.90
2023-04-24T18:06:18.958Z,83.73
2023-04-24T18:08:49.359Z,81.34
2023-04-24T18:11:19.866Z,82.90
2023-04-24T18:13:50.842Z,82.04
2023-04-24T18:16:21.972Z,89.01
2023-04-24T18:18:54.056Z,86.77
2023-04-24T18:21:26.940Z,85.19
2023-04-24T18:24:00.487Z,87.05
2023-04-24T18:26:31.329Z,90.16
2023-04-24T18:29:01.545Z,91.41
2023-04-24T18:31:32.755Z,90.64
2023-04-24T18:34:03.163Z,90.52
2023-04-24T18:36:35.991Z,88.70
2023-04-24T18:39:06.270Z,91.85
2023-04-24T18:41:36.524Z,88.41
2023-04-24T18:44:06.746Z,90.91
2023-04-24T18:46:41.658Z,89.59
2023-04-24T18:49:11.996Z,91.59
2023-04-24T18:51:53.625Z,94.12
2023-04-24T18:54:25.338Z,95.73
2023-04-24T18:56:55.807Z,96.70
2023-04-24T18:59:27.502Z,99.62
2023-04-24T19:01:57.839Z,100.00
2023-04-24T19:04:28.858Z,100.00
2023-04-24T19:07:01.881Z,100.00
2023-04-24T19:09:32.170Z,100.00
2023-04-24T19:12:03.003Z,100.00
2023-04-24T19:14:33.268Z,100.00
2023-04-24T19:17:03.811Z,100.00
2023-04-24T19:19:34.185Z,100.00
2023-04-24T19:22:07.816Z,100.00
2023-04-24T19:24:38.227Z,100.00
2023-04-24T19:27:08.432Z,100.00
2023-04-24T19:29:38.725Z,100.00
2023-04-24T19:32:09.171Z,100.00
2023-04-24T19:34:40.610Z,100.00
2023-04-24T19:37:13.834Z,100.00
2023-04-24T19:39:44.343Z,100.00
2023-04-24T19:42:14.545Z,100.00
2023-04-24T19:44:44.723Z,100.00
2023-04-24T19:47:15.633Z,100.00
2023-04-24T19:49:45.844Z,100.00
2023-04-24T19:52:19.717Z,100.00
2023-04-24T19:54:52.254Z,100.00
2023-04-24T19:57:22.470Z,100.00
2023-04-24T19:59:52.651Z,100.00
2023-04-24T20:02:23.557Z,100.00
2023-04-24T20:04:54.077Z,100.00
2023-04-24T20:07:27.190Z,100.00
2023-04-24T20:09:57.431Z,100.00
2023-04-24T20:12:27.733Z,100.00
2023-04-24T20:14:58.107Z,100.00
2023-04-24T20:17:28.473Z,100.00
2023-04-24T20:19:58.878Z,100.00
2023-04-24T20:22:35.517Z,100.00
2023-04-24T20:25:05.903Z,100.00
2023-04-24T20:27:36.436Z,100.00
2023-04-24T20:30:07.068Z,100.00
2023-04-24T20:32:37.395Z,100.00
2023-04-24T20:35:08.102Z,100.00
2023-04-24T20:37:41.537Z,100.00
2023-04-24T20:40:14.407Z,100.00
2023-04-24T20:42:46.480Z,100.00
2023-04-24T20:45:18.080Z,100.00
2023-04-24T20:47:50.629Z,100.00
2023-04-24T20:50:21.173Z,100.00
2023-04-24T20:52:54.081Z,100.00
2023-04-24T20:55:24.516Z,100.00
2023-04-24T20:57:55.116Z,100.00
2023-04-24T21:00:27.226Z,100.00
2023-04-24T21:02:57.857Z,100.00
2023-04-24T21:05:28.197Z,100.00
2023-04-24T21:08:01.317Z,100.00
2023-04-24T21:10:31.762Z,100.00
2023-04-24T21:13:01.960Z,100.00
2023-04-24T21:15:32.517Z,100.00
2023-04-24T21:18:02.968Z,100.00
2023-04-24T21:20:33.271Z,100.00
2023-04-24T21:23:06.139Z,100.00
2023-04-24T21:25:36.602Z,100.00
2023-04-24T21:28:07.096Z,100.00
2023-04-24T21:30:37.327Z,100.00
2023-04-24T21:33:07.684Z,100.00
2023-04-24T21:35:38.279Z,100.00
2023-04-24T21:38:11.189Z,100.00
2023-04-24T21:40:41.385Z,100.00
2023-04-24T21:43:12.510Z,100.00
2023-04-24T21:45:42.813Z,100.00
2023-04-24T21:48:13.075Z,100.00
2023-04-24T21:50:43.316Z,100.00
2023-04-24T21:53:16.423Z,100.00
2023-04-24T21:55:47.353Z,100.00
2023-04-24T21:58:17.662Z,100.00
2023-04-24T22:00:47.867Z,100.00
2023-04-24T22:03:18.211Z,100.00
2023-04-24T22:05:48.631Z,100.00
2023-04-24T22:08:21.513Z,100.00
2023-04-24T22:10:51.795Z,100.00
2023-04-24T22:13:22.063Z,100.00
2023-04-24T22:15:53.116Z,100.00
2023-04-24T22:18:30.593Z,100.00
2023-04-24T22:21:06.950Z,100.00
2023-04-24T22:23:39.987Z,100.00
2023-04-24T22:26:10.375Z,100.00
2023-04-24T22:28:40.617Z,100.00
2023-04-24T22:31:11.184Z,100.00
2023-04-24T22:33:41.420Z,100.00
2023-04-24T22:36:11.895Z,100.00
2023-04-24T22:38:44.697Z,100.00
2023-04-24T22:41:15.187Z,100.00
2023-04-24T22:43:45.478Z,100.00
2023-04-24T22:46:15.813Z,100.00
2023-04-24T22:48:47.526Z,100.00
2023-04-24T22:51:18.273Z,100.00
2023-04-24T22:53:51.867Z,100.00
2023-04-24T22:56:22.171Z,100.00
2023-04-24T22:58:52.424Z,100.00
2023-04-24T23:01:22.765Z,100.00
2023-04-24T23:03:53.715Z,100.00
2023-04-24T23:06:24.244Z,100.00
2023-04-24T23:08:57.079Z,100.00
2023-04-24T23:11:27.334Z,100.00
2023-04-24T23:13:57.945Z,100.00
2023-04-24T23:16:28.241Z,100.00
2023-04-24T23:18:58.469Z,100.00
2023-04-24T23:21:29.274Z,100.00
2023-04-24T23:24:02.331Z,100.00
2023-04-24T23:26:32.494Z,100.00
2023-04-24T23:29:02.953Z,100.00
2023-04-24T23:31:33.189Z,100.00
2023-04-24T23:34:03.390Z,100.00
2023-04-24T23:36:33.654Z,100.00
2023-04-24T23:39:07.554Z,100.00
2023-04-24T23:41:39.028Z,100.00
2023-04-24T23:44:09.358Z,100.00
2023-04-24T23:46:39.815Z,100.00
2023-04-24T23:49:10.075Z,100.00
2023-04-24T23:51:40.460Z,100.00
2023-04-24T23:54:13.428Z,100.00
2023-04-24T23:56:43.963Z,100.00
2023-04-24T23:59:14.154Z,100.00
